<?xml version="1.0" encoding="utf-8"?>
<gpx version="1.1" creator="GPS Visualizer https://www.gpsvisualizer.com/; modified by GPX Track Cleaner from GPX Viewer plugin (WordPress) " xmlns="http://www.topografix.com/GPX/1/1" xmlns:xsi="http://www.w3.org/2001/XMLSchema-instance" xsi:schemaLocation="http://www.topografix.com/GPX/1/1 http://www.topografix.com/GPX/1/1/gpx.xsd http://www.garmin.com/xmlschemas/TrackPointExtension/v2 http://www.garmin.com/xmlschemas/TrackPointExtensionv2.xsd http://www.garmin.com/xmlschemas/GpxExtensions/v3 http://www.garmin.com/xmlschemas/GpxExtensionsv3.xsd" xmlns:gpxtpx="http://www.garmin.com/xmlschemas/TrackPointExtension/v2" xmlns:gpxx="http://www.garmin.com/xmlschemas/GpxExtensions/v3">

	<trk>
		<name>TRACCE GPX Domenica Facile</name>
		<cmt> distance: 5.2 km, up: 177 m, down: 177 m</cmt>
		<desc>3 track segments, original data of track points</desc>
		<trkseg>
			<trkpt lat="44.4062" lon="8.6864">
				<ele>6</ele>
				<time>2026-05-12T04:15:00Z</time>
			</trkpt>
			<trkpt lat="44.406173333" lon="8.686393333">
				<ele>6</ele>
				<time>2026-05-12T04:15:00.18Z</time>
			</trkpt>
			<trkpt lat="44.406118333" lon="8.686281667">
				<ele>6</ele>
				<time>2026-05-12T04:15:00.83Z</time>
			</trkpt>
			<trkpt lat="44.40608" lon="8.686221667">
				<ele>6</ele>
				<time>2026-05-12T04:15:01.2Z</time>
			</trkpt>
			<trkpt lat="44.406075" lon="8.686196667">
				<ele>6</ele>
				<time>2026-05-12T04:15:01.33Z</time>
			</trkpt>
			<trkpt lat="44.406036667" lon="8.686208333">
				<ele>5</ele>
				<time>2026-05-12T04:15:01.59Z</time>
			</trkpt>
			<trkpt lat="44.406031667" lon="8.686161667">
				<ele>5</ele>
				<time>2026-05-12T04:15:01.81Z</time>
			</trkpt>
			<trkpt lat="44.405961667" lon="8.686173333">
				<ele>5</ele>
				<time>2026-05-12T04:15:02.28Z</time>
			</trkpt>
			<trkpt lat="44.405923333" lon="8.686178333">
				<ele>5</ele>
				<time>2026-05-12T04:15:02.53Z</time>
			</trkpt>
			<trkpt lat="44.405906667" lon="8.68618">
				<ele>5</ele>
				<time>2026-05-12T04:15:02.65Z</time>
			</trkpt>
			<trkpt lat="44.405881667" lon="8.686183333">
				<ele>5</ele>
				<time>2026-05-12T04:15:02.81Z</time>
			</trkpt>
			<trkpt lat="44.405843333" lon="8.686183333">
				<ele>5</ele>
				<time>2026-05-12T04:15:03.07Z</time>
			</trkpt>
			<trkpt lat="44.405771667" lon="8.686173333">
				<ele>5</ele>
				<time>2026-05-12T04:15:03.55Z</time>
			</trkpt>
			<trkpt lat="44.405523333" lon="8.686086667">
				<ele>4</ele>
				<time>2026-05-12T04:15:05.26Z</time>
			</trkpt>
			<trkpt lat="44.405511667" lon="8.686081667">
				<ele>4</ele>
				<time>2026-05-12T04:15:05.34Z</time>
			</trkpt>
			<trkpt lat="44.405481667" lon="8.686068333">
				<ele>5</ele>
				<time>2026-05-12T04:15:05.55Z</time>
			</trkpt>
			<trkpt lat="44.405241667" lon="8.685961667">
				<ele>6</ele>
				<time>2026-05-12T04:15:07.23Z</time>
			</trkpt>
			<trkpt lat="44.405226667" lon="8.685955">
				<ele>6</ele>
				<time>2026-05-12T04:15:07.34Z</time>
			</trkpt>
			<trkpt lat="44.405208333" lon="8.685948333">
				<ele>6</ele>
				<time>2026-05-12T04:15:07.46Z</time>
			</trkpt>
			<trkpt lat="44.405188333" lon="8.685943333">
				<ele>6</ele>
				<time>2026-05-12T04:15:07.59Z</time>
			</trkpt>
			<trkpt lat="44.405026667" lon="8.685896667">
				<ele>6</ele>
				<time>2026-05-12T04:15:08.69Z</time>
			</trkpt>
			<trkpt lat="44.404938333" lon="8.685891667">
				<ele>6</ele>
				<time>2026-05-12T04:15:09.29Z</time>
			</trkpt>
			<trkpt lat="44.404838333" lon="8.685861667">
				<ele>6</ele>
				<time>2026-05-12T04:15:09.96Z</time>
			</trkpt>
			<trkpt lat="44.404821667" lon="8.685918333">
				<ele>6</ele>
				<time>2026-05-12T04:15:10.26Z</time>
			</trkpt>
			<trkpt lat="44.40481" lon="8.685901667">
				<ele>6</ele>
				<time>2026-05-12T04:15:10.37Z</time>
			</trkpt>
			<trkpt lat="44.404663333" lon="8.685721667">
				<ele>8</ele>
				<time>2026-05-12T04:15:11.67Z</time>
			</trkpt>
			<trkpt lat="44.404575" lon="8.685603333">
				<ele>8</ele>
				<time>2026-05-12T04:15:12.49Z</time>
			</trkpt>
			<trkpt lat="44.404341667" lon="8.685376667">
				<ele>6</ele>
				<time>2026-05-12T04:15:14.38Z</time>
			</trkpt>
			<trkpt lat="44.404291667" lon="8.685325">
				<ele>6</ele>
				<time>2026-05-12T04:15:14.79Z</time>
			</trkpt>
			<trkpt lat="44.404251667" lon="8.68528">
				<ele>6</ele>
				<time>2026-05-12T04:15:15.14Z</time>
			</trkpt>
			<trkpt lat="44.40421" lon="8.685236667">
				<ele>6</ele>
				<time>2026-05-12T04:15:15.48Z</time>
			</trkpt>
			<trkpt lat="44.40415" lon="8.685171667">
				<ele>6</ele>
				<time>2026-05-12T04:15:15.99Z</time>
			</trkpt>
			<trkpt lat="44.403998333" lon="8.68508">
				<ele>5</ele>
				<time>2026-05-12T04:15:17.09Z</time>
			</trkpt>
			<trkpt lat="44.403976667" lon="8.685155">
				<ele>5</ele>
				<time>2026-05-12T04:15:17.69Z</time>
			</trkpt>
		</trkseg>
		<trkseg>
			<trkpt lat="44.403988333" lon="8.685141667">
				<ele>5</ele>
				<time>2026-05-12T04:15:17.58Z</time>
			</trkpt>
			<trkpt lat="44.403941667" lon="8.685338333">
				<ele>4</ele>
				<time>2026-05-12T04:15:18.59Z</time>
			</trkpt>
			<trkpt lat="44.403888333" lon="8.685656667">
				<ele>3</ele>
				<time>2026-05-12T04:15:20.14Z</time>
			</trkpt>
			<trkpt lat="44.403886667" lon="8.685668333">
				<ele>3</ele>
				<time>2026-05-12T04:15:20.2Z</time>
			</trkpt>
			<trkpt lat="44.403878333" lon="8.685863333">
				<ele>4</ele>
				<time>2026-05-12T04:15:21.13Z</time>
			</trkpt>
			<trkpt lat="44.403806667" lon="8.68601">
				<ele>4</ele>
				<time>2026-05-12T04:15:21.98Z</time>
			</trkpt>
			<trkpt lat="44.4038" lon="8.686023333">
				<ele>4</ele>
				<time>2026-05-12T04:15:22.06Z</time>
			</trkpt>
			<trkpt lat="44.403781667" lon="8.686005">
				<ele>4</ele>
				<time>2026-05-12T04:15:22.22Z</time>
			</trkpt>
			<trkpt lat="44.403575" lon="8.685878333">
				<ele>4</ele>
				<time>2026-05-12T04:15:23.72Z</time>
			</trkpt>
			<trkpt lat="44.403376667" lon="8.685813333">
				<ele>3</ele>
				<time>2026-05-12T04:15:25.07Z</time>
			</trkpt>
			<trkpt lat="44.403166667" lon="8.685786667">
				<ele>3</ele>
				<time>2026-05-12T04:15:26.48Z</time>
			</trkpt>
			<trkpt lat="44.403096667" lon="8.685771667">
				<ele>3</ele>
				<time>2026-05-12T04:15:26.96Z</time>
			</trkpt>
			<trkpt lat="44.403053333" lon="8.685738333">
				<ele>3</ele>
				<time>2026-05-12T04:15:27.28Z</time>
			</trkpt>
			<trkpt lat="44.403051667" lon="8.685718333">
				<ele>3</ele>
				<time>2026-05-12T04:15:27.37Z</time>
			</trkpt>
			<trkpt lat="44.403051667" lon="8.685713333">
				<ele>3</ele>
				<time>2026-05-12T04:15:27.43Z</time>
			</trkpt>
			<trkpt lat="44.403038333" lon="8.685693333">
				<ele>3</ele>
				<time>2026-05-12T04:15:27.56Z</time>
			</trkpt>
			<trkpt lat="44.403011667" lon="8.68568">
				<ele>3</ele>
				<time>2026-05-12T04:15:27.75Z</time>
			</trkpt>
			<trkpt lat="44.402608333" lon="8.68565">
				<ele>3</ele>
				<time>2026-05-12T04:15:30.44Z</time>
			</trkpt>
			<trkpt lat="44.402253333" lon="8.685626667">
				<ele>1</ele>
				<time>2026-05-12T04:15:32.81Z</time>
			</trkpt>
			<trkpt lat="44.402078333" lon="8.685615">
				<ele>1</ele>
				<time>2026-05-12T04:15:33.97Z</time>
			</trkpt>
			<trkpt lat="44.402018333" lon="8.685611667">
				<ele>1</ele>
				<time>2026-05-12T04:15:34.38Z</time>
			</trkpt>
			<trkpt lat="44.401935" lon="8.685605">
				<time>2026-05-12T04:15:34.94Z</time>
			</trkpt>
			<trkpt lat="44.401871667" lon="8.685601667">
				<time>2026-05-12T04:15:35.36Z</time>
			</trkpt>
			<trkpt lat="44.401701667" lon="8.685593333">
				<ele>1</ele>
				<time>2026-05-12T04:15:36.5Z</time>
			</trkpt>
			<trkpt lat="44.401403333" lon="8.685581667">
				<time>2026-05-12T04:15:38.48Z</time>
			</trkpt>
			<trkpt lat="44.401333333" lon="8.685576667">
				<ele>1</ele>
				<time>2026-05-12T04:15:38.95Z</time>
			</trkpt>
			<trkpt lat="44.401021667" lon="8.685555">
				<ele>3</ele>
				<time>2026-05-12T04:15:41.03Z</time>
			</trkpt>
			<trkpt lat="44.4009" lon="8.685531667">
				<ele>3</ele>
				<time>2026-05-12T04:15:41.85Z</time>
			</trkpt>
			<trkpt lat="44.400841667" lon="8.685465">
				<ele>4</ele>
				<time>2026-05-12T04:15:42.35Z</time>
			</trkpt>
			<trkpt lat="44.400741667" lon="8.685436667">
				<ele>4</ele>
				<time>2026-05-12T04:15:43.03Z</time>
			</trkpt>
			<trkpt lat="44.400656667" lon="8.685406667">
				<ele>4</ele>
				<time>2026-05-12T04:15:43.62Z</time>
			</trkpt>
			<trkpt lat="44.40063" lon="8.685398333">
				<ele>5</ele>
				<time>2026-05-12T04:15:43.8Z</time>
			</trkpt>
			<trkpt lat="44.400546667" lon="8.685375">
				<ele>5</ele>
				<time>2026-05-12T04:15:44.37Z</time>
			</trkpt>
			<trkpt lat="44.400546667" lon="8.685373333">
				<ele>5</ele>
				<time>2026-05-12T04:15:44.43Z</time>
			</trkpt>
			<trkpt lat="44.400466667" lon="8.685346667">
				<ele>5</ele>
				<time>2026-05-12T04:15:44.97Z</time>
			</trkpt>
			<trkpt lat="44.400408333" lon="8.685303333">
				<ele>5</ele>
				<time>2026-05-12T04:15:45.42Z</time>
			</trkpt>
			<trkpt lat="44.400316667" lon="8.685228333">
				<ele>5</ele>
				<time>2026-05-12T04:15:46.12Z</time>
			</trkpt>
			<trkpt lat="44.400306667" lon="8.685228333">
				<ele>5</ele>
				<time>2026-05-12T04:15:46.19Z</time>
			</trkpt>
			<trkpt lat="44.400276667" lon="8.685218333">
				<ele>5</ele>
				<time>2026-05-12T04:15:46.4Z</time>
			</trkpt>
			<trkpt lat="44.400248333" lon="8.685218333">
				<ele>5</ele>
				<time>2026-05-12T04:15:46.58Z</time>
			</trkpt>
			<trkpt lat="44.400238333" lon="8.685215">
				<ele>5</ele>
				<time>2026-05-12T04:15:46.66Z</time>
			</trkpt>
			<trkpt lat="44.400221667" lon="8.6852">
				<ele>5</ele>
				<time>2026-05-12T04:15:46.79Z</time>
			</trkpt>
			<trkpt lat="44.40022" lon="8.685201667">
				<ele>5</ele>
				<time>2026-05-12T04:15:46.85Z</time>
			</trkpt>
			<trkpt lat="44.399911667" lon="8.685341667">
				<ele>4</ele>
				<time>2026-05-12T04:15:49.02Z</time>
			</trkpt>
			<trkpt lat="44.399861667" lon="8.685365">
				<ele>4</ele>
				<time>2026-05-12T04:15:49.37Z</time>
			</trkpt>
			<trkpt lat="44.3995" lon="8.685528333">
				<ele>5</ele>
				<time>2026-05-12T04:15:51.9Z</time>
			</trkpt>
			<trkpt lat="44.399485" lon="8.68554">
				<ele>5</ele>
				<time>2026-05-12T04:15:52.01Z</time>
			</trkpt>
			<trkpt lat="44.399231667" lon="8.685648333">
				<ele>7</ele>
				<time>2026-05-12T04:15:53.78Z</time>
			</trkpt>
			<trkpt lat="44.39923" lon="8.68564">
				<ele>7</ele>
				<time>2026-05-12T04:15:53.84Z</time>
			</trkpt>
			<trkpt lat="44.399238333" lon="8.685636667">
				<ele>7</ele>
				<time>2026-05-12T04:15:53.96Z</time>
			</trkpt>
			<trkpt lat="44.398383333" lon="8.685851667">
				<ele>23</ele>
				<time>2026-05-12T04:15:59.76Z</time>
			</trkpt>
			<trkpt lat="44.397845" lon="8.685893333">
				<ele>47</ele>
				<time>2026-05-12T04:16:03.35Z</time>
			</trkpt>
			<trkpt lat="44.397521667" lon="8.685756667">
				<ele>46</ele>
				<time>2026-05-12T04:16:05.6Z</time>
			</trkpt>
			<trkpt lat="44.397081667" lon="8.685358333">
				<ele>15</ele>
				<time>2026-05-12T04:16:09.09Z</time>
			</trkpt>
			<trkpt lat="44.39668" lon="8.684966667">
				<ele>10</ele>
				<time>2026-05-12T04:16:12.36Z</time>
			</trkpt>
			<trkpt lat="44.396296667" lon="8.684545">
				<ele>10</ele>
				<time>2026-05-12T04:16:15.61Z</time>
			</trkpt>
			<trkpt lat="44.395771667" lon="8.683721667">
				<ele>14</ele>
				<time>2026-05-12T04:16:20.86Z</time>
			</trkpt>
			<trkpt lat="44.395521667" lon="8.683341667">
				<ele>13</ele>
				<time>2026-05-12T04:16:23.33Z</time>
			</trkpt>
			<trkpt lat="44.39539" lon="8.683253333">
				<ele>11</ele>
				<time>2026-05-12T04:16:24.3Z</time>
			</trkpt>
			<trkpt lat="44.395158333" lon="8.682868333">
				<ele>20</ele>
				<time>2026-05-12T04:16:26.69Z</time>
			</trkpt>
			<trkpt lat="44.394658333" lon="8.682056667">
				<ele>12</ele>
				<time>2026-05-12T04:16:31.8Z</time>
			</trkpt>
			<trkpt lat="44.394286667" lon="8.6814">
				<ele>10</ele>
				<time>2026-05-12T04:16:35.79Z</time>
			</trkpt>
			<trkpt lat="44.39389" lon="8.680493333">
				<ele>21</ele>
				<time>2026-05-12T04:16:40.85Z</time>
			</trkpt>
			<trkpt lat="44.393571667" lon="8.679683333">
				<ele>31</ele>
				<time>2026-05-12T04:16:45.26Z</time>
			</trkpt>
			<trkpt lat="44.393163333" lon="8.678768333">
				<ele>30</ele>
				<time>2026-05-12T04:16:50.4Z</time>
			</trkpt>
			<trkpt lat="44.393015" lon="8.678141667">
				<ele>27</ele>
				<time>2026-05-12T04:16:53.54Z</time>
			</trkpt>
			<trkpt lat="44.392926667" lon="8.676908333">
				<ele>15</ele>
				<time>2026-05-12T04:16:59.44Z</time>
			</trkpt>
			<trkpt lat="44.392563333" lon="8.674926667">
				<ele>14</ele>
				<time>2026-05-12T04:17:09.19Z</time>
			</trkpt>
			<trkpt lat="44.392001667" lon="8.671896667">
				<ele>9</ele>
				<time>2026-05-12T04:17:24.1Z</time>
			</trkpt>
			<trkpt lat="44.391748333" lon="8.670605">
				<ele>9</ele>
				<time>2026-05-12T04:17:30.49Z</time>
			</trkpt>
			<trkpt lat="44.39162" lon="8.669993333">
				<ele>12</ele>
				<time>2026-05-12T04:17:33.52Z</time>
			</trkpt>
			<trkpt lat="44.391545" lon="8.669645">
				<ele>13</ele>
				<time>2026-05-12T04:17:35.26Z</time>
			</trkpt>
			<trkpt lat="44.39162" lon="8.669993333">
				<ele>12</ele>
				<time>2026-05-12T04:17:36.99Z</time>
			</trkpt>
			<trkpt lat="44.391748333" lon="8.670605">
				<ele>9</ele>
				<time>2026-05-12T04:17:40.03Z</time>
			</trkpt>
			<trkpt lat="44.392001667" lon="8.671896667">
				<ele>9</ele>
				<time>2026-05-12T04:17:46.41Z</time>
			</trkpt>
			<trkpt lat="44.392563333" lon="8.674926667">
				<ele>14</ele>
				<time>2026-05-12T04:18:01.32Z</time>
			</trkpt>
			<trkpt lat="44.392926667" lon="8.676908333">
				<ele>15</ele>
				<time>2026-05-12T04:18:11.07Z</time>
			</trkpt>
			<trkpt lat="44.393015" lon="8.678141667">
				<ele>27</ele>
				<time>2026-05-12T04:18:16.97Z</time>
			</trkpt>
			<trkpt lat="44.393163333" lon="8.678768333">
				<ele>30</ele>
				<time>2026-05-12T04:18:20.11Z</time>
			</trkpt>
			<trkpt lat="44.393571667" lon="8.679683333">
				<ele>31</ele>
				<time>2026-05-12T04:18:25.26Z</time>
			</trkpt>
			<trkpt lat="44.39389" lon="8.680493333">
				<ele>21</ele>
				<time>2026-05-12T04:18:29.66Z</time>
			</trkpt>
			<trkpt lat="44.394286667" lon="8.6814">
				<ele>10</ele>
				<time>2026-05-12T04:18:34.72Z</time>
			</trkpt>
			<trkpt lat="44.394658333" lon="8.682056667">
				<ele>12</ele>
				<time>2026-05-12T04:18:38.71Z</time>
			</trkpt>
			<trkpt lat="44.395158333" lon="8.682868333">
				<ele>20</ele>
				<time>2026-05-12T04:18:43.82Z</time>
			</trkpt>
			<trkpt lat="44.39539" lon="8.683253333">
				<ele>11</ele>
				<time>2026-05-12T04:18:46.21Z</time>
			</trkpt>
			<trkpt lat="44.395521667" lon="8.683341667">
				<ele>13</ele>
				<time>2026-05-12T04:18:47.18Z</time>
			</trkpt>
			<trkpt lat="44.395771667" lon="8.683721667">
				<ele>14</ele>
				<time>2026-05-12T04:18:49.65Z</time>
			</trkpt>
			<trkpt lat="44.396296667" lon="8.684545">
				<ele>10</ele>
				<time>2026-05-12T04:18:54.9Z</time>
			</trkpt>
			<trkpt lat="44.39668" lon="8.684966667">
				<ele>10</ele>
				<time>2026-05-12T04:18:58.15Z</time>
			</trkpt>
			<trkpt lat="44.397081667" lon="8.685358333">
				<ele>15</ele>
				<time>2026-05-12T04:19:01.42Z</time>
			</trkpt>
			<trkpt lat="44.397521667" lon="8.685756667">
				<ele>46</ele>
				<time>2026-05-12T04:19:04.91Z</time>
			</trkpt>
			<trkpt lat="44.397845" lon="8.685893333">
				<ele>47</ele>
				<time>2026-05-12T04:19:07.16Z</time>
			</trkpt>
			<trkpt lat="44.398383333" lon="8.685851667">
				<ele>23</ele>
				<time>2026-05-12T04:19:10.76Z</time>
			</trkpt>
			<trkpt lat="44.399241667" lon="8.685645">
				<ele>7</ele>
				<time>2026-05-12T04:19:16.56Z</time>
			</trkpt>
			<trkpt lat="44.399485" lon="8.68554">
				<ele>5</ele>
				<time>2026-05-12T04:19:18.26Z</time>
			</trkpt>
			<trkpt lat="44.3995" lon="8.685528333">
				<ele>5</ele>
				<time>2026-05-12T04:19:18.37Z</time>
			</trkpt>
			<trkpt lat="44.399861667" lon="8.685365">
				<ele>4</ele>
				<time>2026-05-12T04:19:20.9Z</time>
			</trkpt>
			<trkpt lat="44.399911667" lon="8.685341667">
				<ele>4</ele>
				<time>2026-05-12T04:19:21.26Z</time>
			</trkpt>
			<trkpt lat="44.40022" lon="8.685201667">
				<ele>5</ele>
				<time>2026-05-12T04:19:23.42Z</time>
			</trkpt>
			<trkpt lat="44.400221667" lon="8.6852">
				<ele>5</ele>
				<time>2026-05-12T04:19:23.48Z</time>
			</trkpt>
			<trkpt lat="44.400238333" lon="8.685215">
				<ele>5</ele>
				<time>2026-05-12T04:19:23.62Z</time>
			</trkpt>
			<trkpt lat="44.400248333" lon="8.685218333">
				<ele>5</ele>
				<time>2026-05-12T04:19:23.69Z</time>
			</trkpt>
			<trkpt lat="44.400276667" lon="8.685218333">
				<ele>5</ele>
				<time>2026-05-12T04:19:23.88Z</time>
			</trkpt>
			<trkpt lat="44.400306667" lon="8.685228333">
				<ele>5</ele>
				<time>2026-05-12T04:19:24.08Z</time>
			</trkpt>
			<trkpt lat="44.400316667" lon="8.685228333">
				<ele>5</ele>
				<time>2026-05-12T04:19:24.15Z</time>
			</trkpt>
			<trkpt lat="44.400408333" lon="8.685303333">
				<ele>5</ele>
				<time>2026-05-12T04:19:24.86Z</time>
			</trkpt>
			<trkpt lat="44.400466667" lon="8.685346667">
				<ele>5</ele>
				<time>2026-05-12T04:19:25.3Z</time>
			</trkpt>
			<trkpt lat="44.400546667" lon="8.685373333">
				<ele>5</ele>
				<time>2026-05-12T04:19:25.84Z</time>
			</trkpt>
			<trkpt lat="44.400546667" lon="8.685375">
				<ele>5</ele>
				<time>2026-05-12T04:19:25.9Z</time>
			</trkpt>
			<trkpt lat="44.40063" lon="8.685398333">
				<ele>5</ele>
				<time>2026-05-12T04:19:26.48Z</time>
			</trkpt>
			<trkpt lat="44.400656667" lon="8.685406667">
				<ele>4</ele>
				<time>2026-05-12T04:19:26.65Z</time>
			</trkpt>
			<trkpt lat="44.400741667" lon="8.685436667">
				<ele>4</ele>
				<time>2026-05-12T04:19:27.24Z</time>
			</trkpt>
			<trkpt lat="44.400841667" lon="8.685465">
				<ele>4</ele>
				<time>2026-05-12T04:19:27.92Z</time>
			</trkpt>
			<trkpt lat="44.4009" lon="8.685531667">
				<ele>3</ele>
				<time>2026-05-12T04:19:28.43Z</time>
			</trkpt>
			<trkpt lat="44.401021667" lon="8.685555">
				<ele>3</ele>
				<time>2026-05-12T04:19:29.24Z</time>
			</trkpt>
			<trkpt lat="44.401333333" lon="8.685576667">
				<ele>1</ele>
				<time>2026-05-12T04:19:31.32Z</time>
			</trkpt>
			<trkpt lat="44.401403333" lon="8.685581667">
				<time>2026-05-12T04:19:31.79Z</time>
			</trkpt>
			<trkpt lat="44.401701667" lon="8.685593333">
				<ele>1</ele>
				<time>2026-05-12T04:19:33.78Z</time>
			</trkpt>
			<trkpt lat="44.401871667" lon="8.685601667">
				<time>2026-05-12T04:19:34.92Z</time>
			</trkpt>
			<trkpt lat="44.401935" lon="8.685605">
				<time>2026-05-12T04:19:35.34Z</time>
			</trkpt>
			<trkpt lat="44.402018333" lon="8.685611667">
				<ele>1</ele>
				<time>2026-05-12T04:19:35.9Z</time>
			</trkpt>
			<trkpt lat="44.402078333" lon="8.685615">
				<ele>1</ele>
				<time>2026-05-12T04:19:36.3Z</time>
			</trkpt>
			<trkpt lat="44.402253333" lon="8.685626667">
				<ele>1</ele>
				<time>2026-05-12T04:19:37.47Z</time>
			</trkpt>
			<trkpt lat="44.402608333" lon="8.68565">
				<ele>3</ele>
				<time>2026-05-12T04:19:39.84Z</time>
			</trkpt>
			<trkpt lat="44.403011667" lon="8.68568">
				<ele>3</ele>
				<time>2026-05-12T04:19:42.53Z</time>
			</trkpt>
			<trkpt lat="44.403038333" lon="8.685693333">
				<ele>3</ele>
				<time>2026-05-12T04:19:42.72Z</time>
			</trkpt>
			<trkpt lat="44.403051667" lon="8.685713333">
				<ele>3</ele>
				<time>2026-05-12T04:19:42.84Z</time>
			</trkpt>
			<trkpt lat="44.403051667" lon="8.685718333">
				<ele>3</ele>
				<time>2026-05-12T04:19:42.9Z</time>
			</trkpt>
			<trkpt lat="44.403053333" lon="8.685738333">
				<ele>3</ele>
				<time>2026-05-12T04:19:43Z</time>
			</trkpt>
			<trkpt lat="44.403096667" lon="8.685771667">
				<ele>3</ele>
				<time>2026-05-12T04:19:43.32Z</time>
			</trkpt>
			<trkpt lat="44.403166667" lon="8.685786667">
				<ele>3</ele>
				<time>2026-05-12T04:19:43.79Z</time>
			</trkpt>
			<trkpt lat="44.403376667" lon="8.685813333">
				<ele>3</ele>
				<time>2026-05-12T04:19:45.2Z</time>
			</trkpt>
			<trkpt lat="44.403575" lon="8.685878333">
				<ele>4</ele>
				<time>2026-05-12T04:19:46.56Z</time>
			</trkpt>
			<trkpt lat="44.403781667" lon="8.686005">
				<ele>4</ele>
				<time>2026-05-12T04:19:48.06Z</time>
			</trkpt>
			<trkpt lat="44.4038" lon="8.686023333">
				<ele>4</ele>
				<time>2026-05-12T04:19:48.21Z</time>
			</trkpt>
			<trkpt lat="44.403806667" lon="8.68601">
				<ele>4</ele>
				<time>2026-05-12T04:19:48.29Z</time>
			</trkpt>
			<trkpt lat="44.403878333" lon="8.685863333">
				<ele>4</ele>
				<time>2026-05-12T04:19:49.14Z</time>
			</trkpt>
			<trkpt lat="44.403886667" lon="8.685668333">
				<ele>3</ele>
				<time>2026-05-12T04:19:50.07Z</time>
			</trkpt>
			<trkpt lat="44.403888333" lon="8.685656667">
				<ele>3</ele>
				<time>2026-05-12T04:19:50.13Z</time>
			</trkpt>
			<trkpt lat="44.403941667" lon="8.685338333">
				<ele>4</ele>
				<time>2026-05-12T04:19:51.69Z</time>
			</trkpt>
			<trkpt lat="44.403976667" lon="8.685155">
				<ele>5</ele>
				<time>2026-05-12T04:19:52.8Z</time>
			</trkpt>
		</trkseg>
		<trkseg>
			<trkpt lat="44.403988333" lon="8.685141667">
				<ele>5</ele>
				<time>2026-05-12T04:19:52.69Z</time>
			</trkpt>
			<trkpt lat="44.403998333" lon="8.68508">
				<ele>5</ele>
				<time>2026-05-12T04:19:53.18Z</time>
			</trkpt>
			<trkpt lat="44.40415" lon="8.685171667">
				<ele>6</ele>
				<time>2026-05-12T04:19:54.29Z</time>
			</trkpt>
			<trkpt lat="44.40421" lon="8.685236667">
				<ele>6</ele>
				<time>2026-05-12T04:19:54.79Z</time>
			</trkpt>
			<trkpt lat="44.404251667" lon="8.68528">
				<ele>6</ele>
				<time>2026-05-12T04:19:55.14Z</time>
			</trkpt>
			<trkpt lat="44.404291667" lon="8.685325">
				<ele>6</ele>
				<time>2026-05-12T04:19:55.48Z</time>
			</trkpt>
			<trkpt lat="44.404341667" lon="8.685376667">
				<ele>6</ele>
				<time>2026-05-12T04:19:55.89Z</time>
			</trkpt>
			<trkpt lat="44.404575" lon="8.685603333">
				<ele>8</ele>
				<time>2026-05-12T04:19:57.79Z</time>
			</trkpt>
			<trkpt lat="44.404663333" lon="8.685721667">
				<ele>8</ele>
				<time>2026-05-12T04:19:58.6Z</time>
			</trkpt>
			<trkpt lat="44.40481" lon="8.685901667">
				<ele>6</ele>
				<time>2026-05-12T04:19:59.9Z</time>
			</trkpt>
			<trkpt lat="44.404821667" lon="8.685918333">
				<ele>6</ele>
				<time>2026-05-12T04:20:00.02Z</time>
			</trkpt>
			<trkpt lat="44.404838333" lon="8.685861667">
				<ele>6</ele>
				<time>2026-05-12T04:20:00.31Z</time>
			</trkpt>
			<trkpt lat="44.404938333" lon="8.685891667">
				<ele>6</ele>
				<time>2026-05-12T04:20:00.99Z</time>
			</trkpt>
			<trkpt lat="44.405026667" lon="8.685896667">
				<ele>6</ele>
				<time>2026-05-12T04:20:01.58Z</time>
			</trkpt>
			<trkpt lat="44.405188333" lon="8.685943333">
				<ele>6</ele>
				<time>2026-05-12T04:20:02.69Z</time>
			</trkpt>
			<trkpt lat="44.405208333" lon="8.685948333">
				<ele>6</ele>
				<time>2026-05-12T04:20:02.81Z</time>
			</trkpt>
			<trkpt lat="44.405226667" lon="8.685955">
				<ele>6</ele>
				<time>2026-05-12T04:20:02.94Z</time>
			</trkpt>
			<trkpt lat="44.405241667" lon="8.685961667">
				<ele>6</ele>
				<time>2026-05-12T04:20:03.05Z</time>
			</trkpt>
			<trkpt lat="44.405481667" lon="8.686068333">
				<ele>5</ele>
				<time>2026-05-12T04:20:04.73Z</time>
			</trkpt>
			<trkpt lat="44.405511667" lon="8.686081667">
				<ele>4</ele>
				<time>2026-05-12T04:20:04.94Z</time>
			</trkpt>
			<trkpt lat="44.405523333" lon="8.686086667">
				<ele>4</ele>
				<time>2026-05-12T04:20:05.01Z</time>
			</trkpt>
			<trkpt lat="44.405771667" lon="8.686173333">
				<ele>5</ele>
				<time>2026-05-12T04:20:06.72Z</time>
			</trkpt>
			<trkpt lat="44.405843333" lon="8.686183333">
				<ele>5</ele>
				<time>2026-05-12T04:20:07.21Z</time>
			</trkpt>
			<trkpt lat="44.405881667" lon="8.686183333">
				<ele>5</ele>
				<time>2026-05-12T04:20:07.46Z</time>
			</trkpt>
			<trkpt lat="44.405906667" lon="8.68618">
				<ele>5</ele>
				<time>2026-05-12T04:20:07.63Z</time>
			</trkpt>
			<trkpt lat="44.405923333" lon="8.686178333">
				<ele>5</ele>
				<time>2026-05-12T04:20:07.74Z</time>
			</trkpt>
			<trkpt lat="44.405961667" lon="8.686173333">
				<ele>5</ele>
				<time>2026-05-12T04:20:07.99Z</time>
			</trkpt>
			<trkpt lat="44.406031667" lon="8.686161667">
				<ele>5</ele>
				<time>2026-05-12T04:20:08.46Z</time>
			</trkpt>
			<trkpt lat="44.406036667" lon="8.686208333">
				<ele>5</ele>
				<time>2026-05-12T04:20:08.68Z</time>
			</trkpt>
			<trkpt lat="44.406075" lon="8.686196667">
				<ele>6</ele>
				<time>2026-05-12T04:20:08.95Z</time>
			</trkpt>
			<trkpt lat="44.40608" lon="8.686221667">
				<ele>6</ele>
				<time>2026-05-12T04:20:09.07Z</time>
			</trkpt>
			<trkpt lat="44.406118333" lon="8.686281667">
				<ele>6</ele>
				<time>2026-05-12T04:20:09.45Z</time>
			</trkpt>
			<trkpt lat="44.406173333" lon="8.686393333">
				<ele>6</ele>
				<time>2026-05-12T04:20:10.1Z</time>
			</trkpt>
			<trkpt lat="44.4062" lon="8.6864">
				<ele>6</ele>
				<time>2026-05-12T04:20:10.28Z</time>
			</trkpt>
		</trkseg>
	</trk>
</gpx>
